sensor_id;sensor_type;location;lat;lon;timestamp;P1;durP1;ratioP1;P2;durP2;ratioP2
24064;SDS011;12258;50.940;5.330;2022-09-24T00:00:16;15.95;;;11.68;;
24064;SDS011;12258;50.940;5.330;2022-09-24T00:02:41;24.50;;;16.15;;
24064;SDS011;12258;50.940;5.330;2022-09-24T00:05:06;17.17;;;12.18;;
24064;SDS011;12258;50.940;5.330;2022-09-24T00:07:33;17.05;;;11.77;;
24064;SDS011;12258;50.940;5.330;2022-09-24T00:09:58;15.75;;;10.13;;
24064;SDS011;12258;50.940;5.330;2022-09-24T00:12:23;14.90;;;9.65;;
24064;SDS011;12258;50.940;5.330;2022-09-24T00:14:49;13.23;;;10.48;;
24064;SDS011;12258;50.940;5.330;2022-09-24T00:17:15;17.85;;;10.82;;
24064;SDS011;12258;50.940;5.330;2022-09-24T00:19:41;16.75;;;12.18;;
24064;SDS011;12258;50.940;5.330;2022-09-24T00:22:06;17.85;;;13.38;;
24064;SDS011;12258;50.940;5.330;2022-09-24T00:24:31;20.10;;;12.90;;
24064;SDS011;12258;50.940;5.330;2022-09-24T00:27:15;17.38;;;11.05;;
24064;SDS011;12258;50.940;5.330;2022-09-24T00:29:40;17.42;;;11.88;;
24064;SDS011;12258;50.940;5.330;2022-09-24T00:32:06;15.93;;;12.05;;
24064;SDS011;12258;50.940;5.330;2022-09-24T00:34:32;16.30;;;10.93;;
24064;SDS011;12258;50.940;5.330;2022-09-24T00:36:58;15.50;;;12.05;;
24064;SDS011;12258;50.940;5.330;2022-09-24T00:39:24;13.23;;;10.63;;
24064;SDS011;12258;50.940;5.330;2022-09-24T00:41:49;18.88;;;12.85;;
24064;SDS011;12258;50.940;5.330;2022-09-24T00:47:35;25.20;;;17.85;;
24064;SDS011;12258;50.940;5.330;2022-09-24T00:52:49;24.30;;;16.15;;
24064;SDS011;12258;50.940;5.330;2022-09-24T00:55:18;24.50;;;17.40;;
24064;SDS011;12258;50.940;5.330;2022-09-24T00:57:45;20.27;;;15.68;;
24064;SDS011;12258;50.940;5.330;2022-09-24T01:00:14;24.90;;;17.90;;
24064;SDS011;12258;50.940;5.330;2022-09-24T01:02:40;24.15;;;18.27;;
24064;SDS011;12258;50.940;5.330;2022-09-24T01:05:08;29.08;;;17.38;;
24064;SDS011;12258;50.940;5.330;2022-09-24T01:07:34;22.83;;;17.77;;
24064;SDS011;12258;50.940;5.330;2022-09-24T01:10:00;28.50;;;17.63;;
24064;SDS011;12258;50.940;5.330;2022-09-24T01:12:31;24.40;;;17.20;;
24064;SDS011;12258;50.940;5.330;2022-09-24T01:17:48;24.40;;;16.55;;
24064;SDS011;12258;50.940;5.330;2022-09-24T01:23:02;19.52;;;14.75;;
24064;SDS011;12258;50.940;5.330;2022-09-24T01:35:30;23.02;;;14.02;;
24064;SDS011;12258;50.940;5.330;2022-09-24T01:38:02;25.00;;;15.00;;
24064;SDS011;12258;50.940;5.330;2022-09-24T01:40:31;25.50;;;15.40;;
24064;SDS011;12258;50.940;5.330;2022-09-24T01:42:58;24.63;;;16.02;;
24064;SDS011;12258;50.940;5.330;2022-09-24T01:45:26;24.15;;;13.82;;
24064;SDS011;12258;50.940;5.330;2022-09-24T01:47:57;22.63;;;13.95;;
24064;SDS011;12258;50.940;5.330;2022-09-24T01:50:24;20.77;;;15.57;;
24064;SDS011;12258;50.940;5.330;2022-09-24T01:52:58;26.67;;;15.50;;
24064;SDS011;12258;50.940;5.330;2022-09-24T01:55:41;26.10;;;14.52;;
24064;SDS011;12258;50.940;5.330;2022-09-24T01:58:17;22.58;;;14.82;;
24064;SDS011;12258;50.940;5.330;2022-09-24T02:00:48;22.95;;;14.93;;
24064;SDS011;12258;50.940;5.330;2022-09-24T02:03:21;21.48;;;15.25;;
24064;SDS011;12258;50.940;5.330;2022-09-24T02:06:15;20.20;;;14.88;;
24064;SDS011;12258;50.940;5.330;2022-09-24T02:08:44;21.10;;;14.18;;
24064;SDS011;12258;50.940;5.330;2022-09-24T02:11:15;24.23;;;14.95;;
24064;SDS011;12258;50.940;5.330;2022-09-24T02:16:15;24.00;;;15.38;;
24064;SDS011;12258;50.940;5.330;2022-09-24T02:18:47;20.80;;;14.80;;
24064;SDS011;12258;50.940;5.330;2022-09-24T02:21:17;22.55;;;14.38;;
24064;SDS011;12258;50.940;5.330;2022-09-24T02:23:44;22.13;;;15.48;;
24064;SDS011;12258;50.940;5.330;2022-09-24T02:26:15;19.83;;;14.43;;
24064;SDS011;12258;50.940;5.330;2022-09-24T02:28:41;25.45;;;14.75;;
24064;SDS011;12258;50.940;5.330;2022-09-24T02:33:44;25.55;;;14.60;;
24064;SDS011;12258;50.940;5.330;2022-09-24T02:36:31;20.38;;;14.15;;
24064;SDS011;12258;50.940;5.330;2022-09-24T02:38:57;22.45;;;12.02;;
24064;SDS011;12258;50.940;5.330;2022-09-24T02:41:23;20.70;;;11.60;;
24064;SDS011;12258;50.940;5.330;2022-09-24T02:43:50;15.95;;;11.68;;
24064;SDS011;12258;50.940;5.330;2022-09-24T02:46:17;20.95;;;13.68;;
24064;SDS011;12258;50.940;5.330;2022-09-24T02:48:43;13.70;;;10.98;;
24064;SDS011;12258;50.940;5.330;2022-09-24T02:51:08;14.95;;;10.95;;
24064;SDS011;12258;50.940;5.330;2022-09-24T02:53:33;21.63;;;13.55;;
24064;SDS011;12258;50.940;5.330;2022-09-24T02:55:59;24.45;;;15.05;;
24064;SDS011;12258;50.940;5.330;2022-09-24T02:58:26;22.85;;;13.13;;
24064;SDS011;12258;50.940;5.330;2022-09-24T03:00:52;21.52;;;14.60;;
24064;SDS011;12258;50.940;5.330;2022-09-24T03:03:19;23.70;;;16.42;;
24064;SDS011;12258;50.940;5.330;2022-09-24T03:05:45;26.40;;;17.00;;
24064;SDS011;12258;50.940;5.330;2022-09-24T03:08:11;25.13;;;16.10;;
24064;SDS011;12258;50.940;5.330;2022-09-24T03:10:36;29.85;;;15.90;;
24064;SDS011;12258;50.940;5.330;2022-09-24T03:13:02;25.33;;;16.50;;
24064;SDS011;12258;50.940;5.330;2022-09-24T03:15:28;30.60;;;16.77;;
24064;SDS011;12258;50.940;5.330;2022-09-24T03:17:54;25.27;;;16.48;;
24064;SDS011;12258;50.940;5.330;2022-09-24T03:20:19;27.20;;;16.08;;
24064;SDS011;12258;50.940;5.330;2022-09-24T03:22:48;21.27;;;15.10;;
24064;SDS011;12258;50.940;5.330;2022-09-24T03:25:15;22.48;;;15.52;;
24064;SDS011;12258;50.940;5.330;2022-09-24T03:27:41;27.48;;;16.67;;
24064;SDS011;12258;50.940;5.330;2022-09-24T03:30:06;23.58;;;16.60;;
24064;SDS011;12258;50.940;5.330;2022-09-24T03:32:50;24.88;;;17.27;;
24064;SDS011;12258;50.940;5.330;2022-09-24T03:35:16;19.85;;;14.20;;
24064;SDS011;12258;50.940;5.330;2022-09-24T03:37:41;24.52;;;16.17;;
24064;SDS011;12258;50.940;5.330;2022-09-24T03:40:07;28.95;;;17.05;;
24064;SDS011;12258;50.940;5.330;2022-09-24T03:42:33;24.88;;;16.98;;
24064;SDS011;12258;50.940;5.330;2022-09-24T03:44:59;30.38;;;18.45;;
24064;SDS011;12258;50.940;5.330;2022-09-24T03:47:25;24.55;;;16.00;;
24064;SDS011;12258;50.940;5.330;2022-09-24T03:49:50;33.88;;;17.95;;
24064;SDS011;12258;50.940;5.330;2022-09-24T03:52:17;26.17;;;17.45;;
24064;SDS011;12258;50.940;5.330;2022-09-24T03:54:43;23.10;;;16.83;;
24064;SDS011;12258;50.940;5.330;2022-09-24T03:57:08;31.98;;;18.27;;
24064;SDS011;12258;50.940;5.330;2022-09-24T03:59:34;30.52;;;18.23;;
24064;SDS011;12258;50.940;5.330;2022-09-24T04:01:59;21.33;;;15.43;;
24064;SDS011;12258;50.940;5.330;2022-09-24T04:04:25;26.92;;;16.15;;
24064;SDS011;12258;50.940;5.330;2022-09-24T04:06:50;21.77;;;15.15;;
24064;SDS011;12258;50.940;5.330;2022-09-24T04:09:16;26.60;;;16.23;;
24064;SDS011;12258;50.940;5.330;2022-09-24T04:11:42;26.00;;;16.58;;
24064;SDS011;12258;50.940;5.330;2022-09-24T04:14:07;33.63;;;18.45;;
24064;SDS011;12258;50.940;5.330;2022-09-24T04:16:34;24.73;;;16.25;;
24064;SDS011;12258;50.940;5.330;2022-09-24T04:18:59;24.30;;;15.27;;
24064;SDS011;12258;50.940;5.330;2022-09-24T04:21:25;21.85;;;13.95;;
24064;SDS011;12258;50.940;5.330;2022-09-24T04:23:51;26.88;;;17.40;;
24064;SDS011;12258;50.940;5.330;2022-09-24T04:26:17;26.60;;;16.45;;
24064;SDS011;12258;50.940;5.330;2022-09-24T04:28:45;24.92;;;17.15;;
24064;SDS011;12258;50.940;5.330;2022-09-24T04:31:10;25.63;;;17.08;;
24064;SDS011;12258;50.940;5.330;2022-09-24T04:33:35;22.60;;;14.00;;
24064;SDS011;12258;50.940;5.330;2022-09-24T04:36:01;26.13;;;15.20;;
24064;SDS011;12258;50.940;5.330;2022-09-24T04:38:26;23.80;;;14.82;;
24064;SDS011;12258;50.940;5.330;2022-09-24T04:40:52;24.50;;;15.32;;
24064;SDS011;12258;50.940;5.330;2022-09-24T04:43:18;19.90;;;13.30;;
24064;SDS011;12258;50.940;5.330;2022-09-24T04:45:43;26.25;;;17.17;;
24064;SDS011;12258;50.940;5.330;2022-09-24T04:48:10;25.92;;;16.70;;
24064;SDS011;12258;50.940;5.330;2022-09-24T04:50:36;24.35;;;15.32;;
24064;SDS011;12258;50.940;5.330;2022-09-24T04:53:02;24.17;;;15.52;;
24064;SDS011;12258;50.940;5.330;2022-09-24T04:55:28;22.10;;;15.68;;
24064;SDS011;12258;50.940;5.330;2022-09-24T04:57:56;21.05;;;15.40;;
24064;SDS011;12258;50.940;5.330;2022-09-24T05:00:22;30.95;;;18.25;;
24064;SDS011;12258;50.940;5.330;2022-09-24T05:02:58;29.38;;;18.15;;
24064;SDS011;12258;50.940;5.330;2022-09-24T05:05:27;26.08;;;16.08;;
24064;SDS011;12258;50.940;5.330;2022-09-24T05:07:53;31.63;;;16.00;;
24064;SDS011;12258;50.940;5.330;2022-09-24T05:10:20;25.40;;;15.15;;
24064;SDS011;12258;50.940;5.330;2022-09-24T05:12:46;23.13;;;13.13;;
24064;SDS011;12258;50.940;5.330;2022-09-24T05:15:12;27.27;;;14.38;;
24064;SDS011;12258;50.940;5.330;2022-09-24T05:17:38;22.58;;;13.75;;
24064;SDS011;12258;50.940;5.330;2022-09-24T05:20:04;26.48;;;15.25;;
24064;SDS011;12258;50.940;5.330;2022-09-24T05:22:30;21.75;;;13.57;;
24064;SDS011;12258;50.940;5.330;2022-09-24T05:24:55;20.42;;;13.70;;
24064;SDS011;12258;50.940;5.330;2022-09-24T05:27:21;25.08;;;16.75;;
24064;SDS011;12258;50.940;5.330;2022-09-24T05:29:48;23.45;;;14.95;;
24064;SDS011;12258;50.940;5.330;2022-09-24T05:32:15;18.92;;;12.18;;
24064;SDS011;12258;50.940;5.330;2022-09-24T05:34:42;19.23;;;13.90;;
24064;SDS011;12258;50.940;5.330;2022-09-24T05:37:09;28.17;;;18.33;;
24064;SDS011;12258;50.940;5.330;2022-09-24T05:39:35;20.63;;;14.05;;
24064;SDS011;12258;50.940;5.330;2022-09-24T05:42:01;21.48;;;14.65;;
24064;SDS011;12258;50.940;5.330;2022-09-24T05:44:29;19.13;;;13.23;;
24064;SDS011;12258;50.940;5.330;2022-09-24T05:46:56;19.90;;;13.88;;
24064;SDS011;12258;50.940;5.330;2022-09-24T05:49:22;16.88;;;12.13;;
24064;SDS011;12258;50.940;5.330;2022-09-24T05:51:48;30.00;;;18.08;;
24064;SDS011;12258;50.940;5.330;2022-09-24T05:54:14;27.27;;;16.40;;
24064;SDS011;12258;50.940;5.330;2022-09-24T05:56:40;23.25;;;16.00;;
24064;SDS011;12258;50.940;5.330;2022-09-24T05:59:05;30.40;;;18.23;;
24064;SDS011;12258;50.940;5.330;2022-09-24T06:01:31;24.95;;;16.85;;
24064;SDS011;12258;50.940;5.330;2022-09-24T06:03:57;27.48;;;16.25;;
24064;SDS011;12258;50.940;5.330;2022-09-24T06:06:24;29.88;;;17.75;;
24064;SDS011;12258;50.940;5.330;2022-09-24T06:08:51;26.52;;;16.80;;
24064;SDS011;12258;50.940;5.330;2022-09-24T06:11:17;29.63;;;18.15;;
24064;SDS011;12258;50.940;5.330;2022-09-24T06:13:43;27.30;;;18.27;;
24064;SDS011;12258;50.940;5.330;2022-09-24T06:16:09;29.20;;;17.55;;
24064;SDS011;12258;50.940;5.330;2022-09-24T06:18:37;32.42;;;18.35;;
24064;SDS011;12258;50.940;5.330;2022-09-24T06:21:05;28.23;;;17.92;;
24064;SDS011;12258;50.940;5.330;2022-09-24T06:23:35;30.90;;;18.20;;
24064;SDS011;12258;50.940;5.330;2022-09-24T06:26:03;30.80;;;17.67;;
24064;SDS011;12258;50.940;5.330;2022-09-24T06:28:31;29.27;;;18.17;;
24064;SDS011;12258;50.940;5.330;2022-09-24T06:30:58;27.50;;;15.95;;
24064;SDS011;12258;50.940;5.330;2022-09-24T06:33:24;23.60;;;16.70;;
24064;SDS011;12258;50.940;5.330;2022-09-24T06:35:50;26.05;;;17.63;;
24064;SDS011;12258;50.940;5.330;2022-09-24T06:38:16;25.35;;;17.20;;
24064;SDS011;12258;50.940;5.330;2022-09-24T06:40:45;26.42;;;16.25;;
24064;SDS011;12258;50.940;5.330;2022-09-24T06:43:12;23.98;;;15.80;;
24064;SDS011;12258;50.940;5.330;2022-09-24T06:45:38;23.33;;;16.70;;
24064;SDS011;12258;50.940;5.330;2022-09-24T06:48:07;27.55;;;17.73;;
24064;SDS011;12258;50.940;5.330;2022-09-24T06:50:34;28.25;;;18.35;;
24064;SDS011;12258;50.940;5.330;2022-09-24T06:52:59;33.13;;;18.25;;
24064;SDS011;12258;50.940;5.330;2022-09-24T06:55:29;25.95;;;17.55;;
24064;SDS011;12258;50.940;5.330;2022-09-24T06:58:28;24.75;;;16.50;;
24064;SDS011;12258;50.940;5.330;2022-09-24T07:00:53;27.73;;;16.85;;
24064;SDS011;12258;50.940;5.330;2022-09-24T07:03:22;28.77;;;16.95;;
24064;SDS011;12258;50.940;5.330;2022-09-24T07:05:49;27.05;;;17.65;;
24064;SDS011;12258;50.940;5.330;2022-09-24T07:08:15;28.67;;;18.63;;
24064;SDS011;12258;50.940;5.330;2022-09-24T07:10:42;27.80;;;17.92;;
24064;SDS011;12258;50.940;5.330;2022-09-24T07:13:08;27.20;;;17.83;;
24064;SDS011;12258;50.940;5.330;2022-09-24T07:15:35;26.85;;;17.35;;
24064;SDS011;12258;50.940;5.330;2022-09-24T07:18:00;28.35;;;18.17;;
24064;SDS011;12258;50.940;5.330;2022-09-24T07:20:25;23.70;;;16.92;;
24064;SDS011;12258;50.940;5.330;2022-09-24T07:22:52;28.05;;;16.17;;
24064;SDS011;12258;50.940;5.330;2022-09-24T07:25:18;22.13;;;16.27;;
24064;SDS011;12258;50.940;5.330;2022-09-24T07:27:44;23.10;;;15.98;;
24064;SDS011;12258;50.940;5.330;2022-09-24T07:30:10;24.83;;;15.98;;
24064;SDS011;12258;50.940;5.330;2022-09-24T07:32:36;22.60;;;14.13;;
24064;SDS011;12258;50.940;5.330;2022-09-24T07:35:02;24.45;;;16.23;;
24064;SDS011;12258;50.940;5.330;2022-09-24T07:37:28;26.05;;;15.73;;
24064;SDS011;12258;50.940;5.330;2022-09-24T07:39:56;29.85;;;16.83;;
24064;SDS011;12258;50.940;5.330;2022-09-24T07:42:22;26.10;;;17.30;;
24064;SDS011;12258;50.940;5.330;2022-09-24T07:44:47;24.42;;;14.40;;
24064;SDS011;12258;50.940;5.330;2022-09-24T07:47:14;28.50;;;16.95;;
24064;SDS011;12258;50.940;5.330;2022-09-24T07:49:39;27.10;;;16.02;;
24064;SDS011;12258;50.940;5.330;2022-09-24T07:52:06;25.45;;;15.98;;
24064;SDS011;12258;50.940;5.330;2022-09-24T07:54:32;20.42;;;14.55;;
24064;SDS011;12258;50.940;5.330;2022-09-24T07:56:57;27.20;;;16.35;;
24064;SDS011;12258;50.940;5.330;2022-09-24T07:59:23;25.67;;;16.52;;
24064;SDS011;12258;50.940;5.330;2022-09-24T08:01:49;24.40;;;13.48;;
24064;SDS011;12258;50.940;5.330;2022-09-24T08:04:15;22.92;;;14.95;;
24064;SDS011;12258;50.940;5.330;2022-09-24T08:06:42;24.58;;;16.45;;
24064;SDS011;12258;50.940;5.330;2022-09-24T08:09:07;26.67;;;16.70;;
24064;SDS011;12258;50.940;5.330;2022-09-24T08:11:33;26.17;;;15.85;;
24064;SDS011;12258;50.940;5.330;2022-09-24T08:13:58;19.42;;;12.43;;
24064;SDS011;12258;50.940;5.330;2022-09-24T08:16:24;25.95;;;18.02;;
24064;SDS011;12258;50.940;5.330;2022-09-24T08:18:51;20.75;;;14.23;;
24064;SDS011;12258;50.940;5.330;2022-09-24T08:21:17;23.23;;;15.18;;
24064;SDS011;12258;50.940;5.330;2022-09-24T08:23:42;22.77;;;15.60;;
24064;SDS011;12258;50.940;5.330;2022-09-24T08:26:09;23.10;;;16.83;;
24064;SDS011;12258;50.940;5.330;2022-09-24T08:28:36;28.67;;;18.25;;
24064;SDS011;12258;50.940;5.330;2022-09-24T08:31:03;26.90;;;17.30;;
24064;SDS011;12258;50.940;5.330;2022-09-24T08:33:32;29.52;;;17.15;;
24064;SDS011;12258;50.940;5.330;2022-09-24T08:36:00;26.58;;;16.90;;
24064;SDS011;12258;50.940;5.330;2022-09-24T08:38:27;26.75;;;17.63;;
24064;SDS011;12258;50.940;5.330;2022-09-24T08:40:57;29.73;;;18.20;;
24064;SDS011;12258;50.940;5.330;2022-09-24T08:45:52;25.73;;;18.27;;
24064;SDS011;12258;50.940;5.330;2022-09-24T08:48:41;29.60;;;17.88;;
24064;SDS011;12258;50.940;5.330;2022-09-24T08:51:12;27.00;;;16.98;;
24064;SDS011;12258;50.940;5.330;2022-09-24T08:53:46;26.63;;;16.90;;
24064;SDS011;12258;50.940;5.330;2022-09-24T08:56:32;28.10;;;17.85;;
24064;SDS011;12258;50.940;5.330;2022-09-24T08:59:04;30.98;;;18.73;;
24064;SDS011;12258;50.940;5.330;2022-09-24T09:12:02;28.88;;;16.35;;
24064;SDS011;12258;50.940;5.330;2022-09-24T09:17:50;26.67;;;17.25;;
24064;SDS011;12258;50.940;5.330;2022-09-24T09:20:30;26.85;;;15.95;;
24064;SDS011;12258;50.940;5.330;2022-09-24T09:23:04;24.70;;;14.50;;
24064;SDS011;12258;50.940;5.330;2022-09-24T09:25:37;24.02;;;16.20;;
24064;SDS011;12258;50.940;5.330;2022-09-24T09:30:50;26.98;;;16.17;;
24064;SDS011;12258;50.940;5.330;2022-09-24T09:33:35;23.55;;;14.68;;
24064;SDS011;12258;50.940;5.330;2022-09-24T09:39:09;22.20;;;14.55;;
24064;SDS011;12258;50.940;5.330;2022-09-24T09:42:02;27.25;;;15.65;;
24064;SDS011;12258;50.940;5.330;2022-09-24T09:44:40;25.13;;;16.00;;
24064;SDS011;12258;50.940;5.330;2022-09-24T09:47:13;31.02;;;16.75;;
24064;SDS011;12258;50.940;5.330;2022-09-24T09:49:40;29.90;;;17.27;;
24064;SDS011;12258;50.940;5.330;2022-09-24T09:52:14;30.88;;;17.73;;
24064;SDS011;12258;50.940;5.330;2022-09-24T09:54:44;22.83;;;14.75;;
24064;SDS011;12258;50.940;5.330;2022-09-24T09:57:11;27.23;;;15.05;;
24064;SDS011;12258;50.940;5.330;2022-09-24T09:59:50;26.83;;;16.00;;
24064;SDS011;12258;50.940;5.330;2022-09-24T10:02:24;23.50;;;15.43;;
24064;SDS011;12258;50.940;5.330;2022-09-24T10:04:54;25.35;;;14.77;;
24064;SDS011;12258;50.940;5.330;2022-09-24T10:07:22;26.67;;;17.30;;
24064;SDS011;12258;50.940;5.330;2022-09-24T10:09:57;24.77;;;16.08;;
24064;SDS011;12258;50.940;5.330;2022-09-24T10:12:27;25.35;;;15.65;;
24064;SDS011;12258;50.940;5.330;2022-09-24T10:15:00;25.50;;;17.20;;
24064;SDS011;12258;50.940;5.330;2022-09-24T10:17:39;26.02;;;16.63;;
24064;SDS011;12258;50.940;5.330;2022-09-24T10:20:14;25.33;;;15.65;;
24064;SDS011;12258;50.940;5.330;2022-09-24T10:22:48;23.48;;;15.13;;
24064;SDS011;12258;50.940;5.330;2022-09-24T10:25:21;24.48;;;15.30;;
24064;SDS011;12258;50.940;5.330;2022-09-24T10:27:52;25.15;;;15.18;;
24064;SDS011;12258;50.940;5.330;2022-09-24T10:30:52;24.33;;;15.65;;
24064;SDS011;12258;50.940;5.330;2022-09-24T10:33:22;20.58;;;14.32;;
24064;SDS011;12258;50.940;5.330;2022-09-24T10:35:49;20.85;;;13.32;;
24064;SDS011;12258;50.940;5.330;2022-09-24T10:38:31;18.35;;;13.15;;
24064;SDS011;12258;50.940;5.330;2022-09-24T10:40:57;20.88;;;12.15;;
24064;SDS011;12258;50.940;5.330;2022-09-24T10:43:23;20.83;;;13.25;;
24064;SDS011;12258;50.940;5.330;2022-09-24T10:53:55;19.15;;;12.07;;
24064;SDS011;12258;50.940;5.330;2022-09-24T10:56:37;22.85;;;13.23;;
24064;SDS011;12258;50.940;5.330;2022-09-24T11:01:46;22.30;;;13.52;;
24064;SDS011;12258;50.940;5.330;2022-09-24T11:05:16;17.55;;;11.85;;
24064;SDS011;12258;50.940;5.330;2022-09-24T11:27:21;20.80;;;13.15;;
24064;SDS011;12258;50.940;5.330;2022-09-24T11:29:56;21.90;;;13.60;;
24064;SDS011;12258;50.940;5.330;2022-09-24T11:35:26;20.23;;;11.68;;
24064;SDS011;12258;50.940;5.330;2022-09-24T11:38:15;19.52;;;12.50;;
24064;SDS011;12258;50.940;5.330;2022-09-24T11:43:58;13.13;;;9.93;;
24064;SDS011;12258;50.940;5.330;2022-09-24T11:52:04;15.48;;;9.07;;
24064;SDS011;12258;50.940;5.330;2022-09-24T11:54:44;17.77;;;10.07;;
24064;SDS011;12258;50.940;5.330;2022-09-24T11:57:14;15.27;;;9.77;;
24064;SDS011;12258;50.940;5.330;2022-09-24T11:59:56;16.25;;;9.75;;
24064;SDS011;12258;50.940;5.330;2022-09-24T12:02:38;17.20;;;10.18;;
24064;SDS011;12258;50.940;5.330;2022-09-24T12:07:47;16.88;;;10.40;;
24064;SDS011;12258;50.940;5.330;2022-09-24T12:10:21;18.08;;;10.88;;
24064;SDS011;12258;50.940;5.330;2022-09-24T12:12:56;18.58;;;10.75;;
24064;SDS011;12258;50.940;5.330;2022-09-24T12:15:29;16.83;;;10.65;;
24064;SDS011;12258;50.940;5.330;2022-09-24T12:18:06;14.65;;;10.02;;
24064;SDS011;12258;50.940;5.330;2022-09-24T12:20:45;16.55;;;11.07;;
24064;SDS011;12258;50.940;5.330;2022-09-24T12:23:16;18.63;;;11.27;;
24064;SDS011;12258;50.940;5.330;2022-09-24T12:25:45;15.10;;;10.90;;
24064;SDS011;12258;50.940;5.330;2022-09-24T12:28:17;20.35;;;11.65;;
24064;SDS011;12258;50.940;5.330;2022-09-24T12:31:03;18.88;;;11.65;;
24064;SDS011;12258;50.940;5.330;2022-09-24T12:36:58;18.65;;;11.57;;
24064;SDS011;12258;50.940;5.330;2022-09-24T12:39:34;19.63;;;11.52;;
24064;SDS011;12258;50.940;5.330;2022-09-24T12:42:16;18.67;;;12.70;;
24064;SDS011;12258;50.940;5.330;2022-09-24T12:44:50;19.20;;;11.77;;
24064;SDS011;12258;50.940;5.330;2022-09-24T12:47:20;24.02;;;12.15;;
24064;SDS011;12258;50.940;5.330;2022-09-24T12:49:55;17.55;;;11.63;;
24064;SDS011;12258;50.940;5.330;2022-09-24T12:52:27;17.60;;;10.88;;
24064;SDS011;12258;50.940;5.330;2022-09-24T12:54:58;18.88;;;12.60;;
24064;SDS011;12258;50.940;5.330;2022-09-24T12:57:28;20.23;;;12.80;;
24064;SDS011;12258;50.940;5.330;2022-09-24T13:00:00;18.42;;;12.07;;
24064;SDS011;12258;50.940;5.330;2022-09-24T13:02:28;19.10;;;11.52;;
24064;SDS011;12258;50.940;5.330;2022-09-24T13:07:32;16.67;;;11.40;;
24064;SDS011;12258;50.940;5.330;2022-09-24T13:12:40;17.10;;;11.00;;
24064;SDS011;12258;50.940;5.330;2022-09-24T13:15:07;20.42;;;12.00;;
24064;SDS011;12258;50.940;5.330;2022-09-24T13:17:47;22.52;;;10.82;;
24064;SDS011;12258;50.940;5.330;2022-09-24T13:20:54;17.33;;;10.70;;
24064;SDS011;12258;50.940;5.330;2022-09-24T13:26:06;18.48;;;11.90;;
24064;SDS011;12258;50.940;5.330;2022-09-24T13:33:46;25.63;;;12.95;;
24064;SDS011;12258;50.940;5.330;2022-09-24T13:36:16;18.27;;;11.48;;
24064;SDS011;12258;50.940;5.330;2022-09-24T13:38:48;15.77;;;10.23;;
24064;SDS011;12258;50.940;5.330;2022-09-24T13:41:28;22.10;;;12.50;;
24064;SDS011;12258;50.940;5.330;2022-09-24T13:43:58;16.45;;;10.52;;
24064;SDS011;12258;50.940;5.330;2022-09-24T13:46:26;19.40;;;11.95;;
24064;SDS011;12258;50.940;5.330;2022-09-24T13:48:55;17.35;;;10.75;;
24064;SDS011;12258;50.940;5.330;2022-09-24T13:51:27;14.45;;;10.27;;
24064;SDS011;12258;50.940;5.330;2022-09-24T13:56:23;18.17;;;10.45;;
24064;SDS011;12258;50.940;5.330;2022-09-24T13:58:50;21.85;;;11.13;;
24064;SDS011;12258;50.940;5.330;2022-09-24T14:01:27;18.67;;;11.85;;
24064;SDS011;12258;50.940;5.330;2022-09-24T14:03:54;15.00;;;10.55;;
24064;SDS011;12258;50.940;5.330;2022-09-24T14:06:44;15.85;;;10.15;;
24064;SDS011;12258;50.940;5.330;2022-09-24T14:11:51;18.45;;;11.60;;
24064;SDS011;12258;50.940;5.330;2022-09-24T14:14:23;19.08;;;10.15;;
24064;SDS011;12258;50.940;5.330;2022-09-24T14:16:50;20.48;;;11.52;;
24064;SDS011;12258;50.940;5.330;2022-09-24T14:19:19;13.75;;;9.40;;
24064;SDS011;12258;50.940;5.330;2022-09-24T14:21:47;17.13;;;10.25;;
24064;SDS011;12258;50.940;5.330;2022-09-24T14:27:00;12.98;;;8.82;;
24064;SDS011;12258;50.940;5.330;2022-09-24T14:34:53;13.93;;;8.95;;
24064;SDS011;12258;50.940;5.330;2022-09-24T14:37:23;15.77;;;8.18;;
24064;SDS011;12258;50.940;5.330;2022-09-24T14:39:57;11.82;;;8.35;;
24064;SDS011;12258;50.940;5.330;2022-09-24T14:42:29;11.95;;;8.32;;
24064;SDS011;12258;50.940;5.330;2022-09-24T14:45:01;13.73;;;8.90;;
24064;SDS011;12258;50.940;5.330;2022-09-24T14:47:31;13.55;;;9.52;;
24064;SDS011;12258;50.940;5.330;2022-09-24T14:49:57;12.77;;;8.65;;
24064;SDS011;12258;50.940;5.330;2022-09-24T14:52:28;16.27;;;8.57;;
24064;SDS011;12258;50.940;5.330;2022-09-24T14:57:45;14.68;;;8.10;;
24064;SDS011;12258;50.940;5.330;2022-09-24T15:00:56;13.15;;;8.32;;
24064;SDS011;12258;50.940;5.330;2022-09-24T15:03:12;17.08;;;9.23;;
24064;SDS011;12258;50.940;5.330;2022-09-24T15:05:40;15.00;;;9.60;;
24064;SDS011;12258;50.940;5.330;2022-09-24T15:10:38;15.75;;;9.38;;
24064;SDS011;12258;50.940;5.330;2022-09-24T15:13:13;13.98;;;9.38;;
24064;SDS011;12258;50.940;5.330;2022-09-24T15:15:42;12.98;;;8.00;;
24064;SDS011;12258;50.940;5.330;2022-09-24T15:18:09;15.65;;;8.90;;
24064;SDS011;12258;50.940;5.330;2022-09-24T15:20:35;14.82;;;8.75;;
24064;SDS011;12258;50.940;5.330;2022-09-24T15:23:01;13.75;;;7.95;;
24064;SDS011;12258;50.940;5.330;2022-09-24T15:25:27;14.95;;;8.13;;
24064;SDS011;12258;50.940;5.330;2022-09-24T15:27:52;12.23;;;7.00;;
24064;SDS011;12258;50.940;5.330;2022-09-24T15:30:19;15.85;;;8.65;;
24064;SDS011;12258;50.940;5.330;2022-09-24T15:32:46;9.85;;;7.82;;
24064;SDS011;12258;50.940;5.330;2022-09-24T15:35:14;14.07;;;7.40;;
24064;SDS011;12258;50.940;5.330;2022-09-24T15:37:40;10.90;;;7.63;;
24064;SDS011;12258;50.940;5.330;2022-09-24T15:40:08;11.10;;;7.20;;
24064;SDS011;12258;50.940;5.330;2022-09-24T15:42:39;10.18;;;7.30;;
24064;SDS011;12258;50.940;5.330;2022-09-24T15:45:15;14.55;;;8.02;;
24064;SDS011;12258;50.940;5.330;2022-09-24T15:47:42;9.77;;;7.35;;
24064;SDS011;12258;50.940;5.330;2022-09-24T15:50:08;13.13;;;7.32;;
24064;SDS011;12258;50.940;5.330;2022-09-24T15:52:34;9.63;;;6.50;;
24064;SDS011;12258;50.940;5.330;2022-09-24T15:55:11;10.40;;;7.32;;
24064;SDS011;12258;50.940;5.330;2022-09-24T15:57:39;10.15;;;6.95;;
24064;SDS011;12258;50.940;5.330;2022-09-24T16:00:05;8.95;;;7.10;;
24064;SDS011;12258;50.940;5.330;2022-09-24T16:02:31;13.73;;;7.43;;
24064;SDS011;12258;50.940;5.330;2022-09-24T16:04:58;11.75;;;7.40;;
24064;SDS011;12258;50.940;5.330;2022-09-24T16:07:24;10.38;;;6.32;;
24064;SDS011;12258;50.940;5.330;2022-09-24T16:09:51;9.65;;;6.75;;
24064;SDS011;12258;50.940;5.330;2022-09-24T16:12:17;9.45;;;7.20;;
24064;SDS011;12258;50.940;5.330;2022-09-24T16:14:44;13.52;;;6.85;;
24064;SDS011;12258;50.940;5.330;2022-09-24T16:17:09;13.73;;;6.82;;
24064;SDS011;12258;50.940;5.330;2022-09-24T16:19:35;8.27;;;6.35;;
24064;SDS011;12258;50.940;5.330;2022-09-24T16:22:01;10.88;;;6.55;;
24064;SDS011;12258;50.940;5.330;2022-09-24T16:24:29;9.48;;;6.45;;
24064;SDS011;12258;50.940;5.330;2022-09-24T16:26:56;10.82;;;6.82;;
24064;SDS011;12258;50.940;5.330;2022-09-24T16:29:21;10.70;;;7.15;;
24064;SDS011;12258;50.940;5.330;2022-09-24T16:31:47;10.40;;;6.53;;
24064;SDS011;12258;50.940;5.330;2022-09-24T16:34:13;11.18;;;5.97;;
24064;SDS011;12258;50.940;5.330;2022-09-24T16:36:38;12.98;;;7.72;;
24064;SDS011;12258;50.940;5.330;2022-09-24T16:39:04;11.68;;;6.80;;
24064;SDS011;12258;50.940;5.330;2022-09-24T16:41:29;14.38;;;7.05;;
24064;SDS011;12258;50.940;5.330;2022-09-24T16:44:01;7.70;;;5.95;;